sensor_id;sensor_type;location;lat;lon;timestamp;pressure;altitude;pressure_sealevel;temperature;humidity
24336;BME280;33098;52.400;16.880;2023-01-26T00:03:39;101605.38;;;2.62;100.00
24336;BME280;33098;52.400;16.880;2023-01-26T00:06:09;101601.61;;;2.66;100.00
24336;BME280;33098;52.400;16.880;2023-01-26T00:08:37;101601.52;;;2.69;100.00
24336;BME280;33098;52.400;16.880;2023-01-26T00:11:05;101598.66;;;2.70;100.00
24336;BME280;33098;52.400;16.880;2023-01-26T00:13:34;101596.77;;;2.83;100.00
24336;BME280;33098;52.400;16.880;2023-01-26T00:16:01;101595.05;;;2.87;100.00
24336;BME280;33098;52.400;16.880;2023-01-26T00:18:29;101599.34;;;2.97;100.00
24336;BME280;33098;52.400;16.880;2023-01-26T00:21:00;101594.87;;;3.06;100.00
24336;BME280;33098;52.400;16.880;2023-01-26T00:23:28;101594.40;;;2.98;100.00
24336;BME280;33098;52.400;16.880;2023-01-26T00:25:56;101595.48;;;2.91;100.00
24336;BME280;33098;52.400;16.880;2023-01-26T00:28:22;101594.70;;;2.88;100.00
24336;BME280;33098;52.400;16.880;2023-01-26T00:30:49;101586.44;;;2.82;100.00
24336;BME280;33098;52.400;16.880;2023-01-26T00:33:16;101583.63;;;2.76;100.00
24336;BME280;33098;52.400;16.880;2023-01-26T00:35:43;101577.52;;;2.69;100.00
24336;BME280;33098;52.400;16.880;2023-01-26T00:38:11;101580.11;;;2.64;100.00
24336;BME280;33098;52.400;16.880;2023-01-26T00:40:38;101574.88;;;2.62;100.00
24336;BME280;33098;52.400;16.880;2023-01-26T00:43:05;101573.19;;;2.60;100.00
24336;BME280;33098;52.400;16.880;2023-01-26T00:45:34;101573.45;;;2.63;100.00
24336;BME280;33098;52.400;16.880;2023-01-26T00:48:06;101575.20;;;2.76;100.00
24336;BME280;33098;52.400;16.880;2023-01-26T00:50:33;101570.17;;;2.74;100.00
24336;BME280;33098;52.400;16.880;2023-01-26T00:52:59;101570.39;;;2.66;100.00
24336;BME280;33098;52.400;16.880;2023-01-26T00:55:26;101577.39;;;2.61;100.00
24336;BME280;33098;52.400;16.880;2023-01-26T00:58:00;101571.40;;;2.68;100.00
24336;BME280;33098;52.400;16.880;2023-01-26T01:00:30;101571.18;;;2.82;100.00
24336;BME280;33098;52.400;16.880;2023-01-26T01:02:58;101570.61;;;2.84;100.00
24336;BME280;33098;52.400;16.880;2023-01-26T01:05:27;101568.62;;;2.80;100.00
24336;BME280;33098;52.400;16.880;2023-01-26T01:07:54;101563.91;;;2.79;100.00
24336;BME280;33098;52.400;16.880;2023-01-26T01:10:22;101565.84;;;2.85;100.00
24336;BME280;33098;52.400;16.880;2023-01-26T01:12:49;101569.14;;;2.86;100.00
24336;BME280;33098;52.400;16.880;2023-01-26T01:15:16;101562.92;;;2.95;100.00
24336;BME280;33098;52.400;16.880;2023-01-26T01:17:43;101562.75;;;3.07;100.00
24336;BME280;33098;52.400;16.880;2023-01-26T01:20:10;101560.32;;;3.12;100.00
24336;BME280;33098;52.400;16.880;2023-01-26T01:22:37;101556.73;;;3.09;100.00
24336;BME280;33098;52.400;16.880;2023-01-26T01:25:04;101548.90;;;3.01;100.00
24336;BME280;33098;52.400;16.880;2023-01-26T01:27:31;101548.14;;;2.91;100.00
24336;BME280;33098;52.400;16.880;2023-01-26T01:29:57;101547.20;;;2.81;100.00
24336;BME280;33098;52.400;16.880;2023-01-26T01:32:24;101543.50;;;2.75;100.00
24336;BME280;33098;52.400;16.880;2023-01-26T01:34:51;101545.38;;;2.70;100.00
24336;BME280;33098;52.400;16.880;2023-01-26T01:37:17;101542.35;;;2.67;100.00
24336;BME280;33098;52.400;16.880;2023-01-26T01:39:44;101542.80;;;2.69;100.00
24336;BME280;33098;52.400;16.880;2023-01-26T01:42:11;101545.39;;;2.70;100.00
24336;BME280;33098;52.400;16.880;2023-01-26T01:44:38;101544.70;;;2.70;100.00
24336;BME280;33098;52.400;16.880;2023-01-26T01:47:17;101542.52;;;2.72;100.00
24336;BME280;33098;52.400;16.880;2023-01-26T01:49:50;101535.95;;;2.82;100.00
24336;BME280;33098;52.400;16.880;2023-01-26T01:52:24;101532.91;;;2.90;100.00
24336;BME280;33098;52.400;16.880;2023-01-26T01:54:55;101532.36;;;3.03;100.00
24336;BME280;33098;52.400;16.880;2023-01-26T01:57:26;101520.02;;;3.11;100.00
24336;BME280;33098;52.400;16.880;2023-01-26T01:59:59;101517.30;;;3.08;100.00
24336;BME280;33098;52.400;16.880;2023-01-26T02:02:28;101516.92;;;3.20;100.00
24336;BME280;33098;52.400;16.880;2023-01-26T02:04:57;101508.05;;;3.18;100.00
24336;BME280;33098;52.400;16.880;2023-01-26T02:07:27;101501.25;;;3.10;100.00
24336;BME280;33098;52.400;16.880;2023-01-26T02:09:54;101499.59;;;3.14;100.00
24336;BME280;33098;52.400;16.880;2023-01-26T02:12:44;101496.59;;;3.20;100.00
24336;BME280;33098;52.400;16.880;2023-01-26T02:15:12;101493.10;;;3.31;100.00
24336;BME280;33098;52.400;16.880;2023-01-26T02:17:39;101489.77;;;3.30;100.00
24336;BME280;33098;52.400;16.880;2023-01-26T02:20:24;101485.05;;;3.24;100.00
24336;BME280;33098;52.400;16.880;2023-01-26T02:28:15;101474.36;;;3.13;100.00
24336;BME280;33098;52.400;16.880;2023-01-26T02:30:44;101470.69;;;3.00;100.00
24336;BME280;33098;52.400;16.880;2023-01-26T02:33:21;101469.66;;;2.88;100.00
24336;BME280;33098;52.400;16.880;2023-01-26T02:35:48;101471.41;;;2.89;100.00
24336;BME280;33098;52.400;16.880;2023-01-26T02:38:16;101467.99;;;2.91;100.00
24336;BME280;33098;52.400;16.880;2023-01-26T02:40:55;101463.52;;;2.83;100.00
24336;BME280;33098;52.400;16.880;2023-01-26T02:43:24;101467.27;;;2.87;100.00
24336;BME280;33098;52.400;16.880;2023-01-26T02:45:52;101463.27;;;2.97;100.00
24336;BME280;33098;52.400;16.880;2023-01-26T02:48:18;101460.67;;;2.90;100.00
24336;BME280;33098;52.400;16.880;2023-01-26T02:51:04;101457.09;;;2.87;100.00
24336;BME280;33098;52.400;16.880;2023-01-26T02:53:32;101456.81;;;2.84;100.00
24336;BME280;33098;52.400;16.880;2023-01-26T02:55:59;101457.87;;;2.90;100.00
24336;BME280;33098;52.400;16.880;2023-01-26T02:58:27;101457.32;;;2.96;100.00
24336;BME280;33098;52.400;16.880;2023-01-26T03:00:53;101453.11;;;3.02;100.00
24336;BME280;33098;52.400;16.880;2023-01-26T03:03:24;101451.34;;;3.14;100.00
24336;BME280;33098;52.400;16.880;2023-01-26T03:05:52;101446.71;;;3.16;100.00
24336;BME280;33098;52.400;16.880;2023-01-26T03:08:18;101451.77;;;3.11;100.00
24336;BME280;33098;52.400;16.880;2023-01-26T03:10:45;101452.45;;;3.12;100.00
24336;BME280;33098;52.400;16.880;2023-01-26T03:13:13;101446.14;;;3.01;100.00
24336;BME280;33098;52.400;16.880;2023-01-26T03:15:40;101445.02;;;2.91;100.00
24336;BME280;33098;52.400;16.880;2023-01-26T03:18:18;101441.05;;;2.89;100.00
24336;BME280;33098;52.400;16.880;2023-01-26T03:21:08;101443.63;;;2.85;100.00
24336;BME280;33098;52.400;16.880;2023-01-26T03:23:54;101440.64;;;2.79;100.00
24336;BME280;33098;52.400;16.880;2023-01-26T03:26:40;101433.11;;;2.85;100.00
24336;BME280;33098;52.400;16.880;2023-01-26T03:29:26;101436.37;;;2.93;100.00
24336;BME280;33098;52.400;16.880;2023-01-26T03:31:53;101431.52;;;3.03;100.00
24336;BME280;33098;52.400;16.880;2023-01-26T03:34:20;101431.20;;;3.07;100.00
24336;BME280;33098;52.400;16.880;2023-01-26T03:36:48;101424.33;;;3.03;100.00
24336;BME280;33098;52.400;16.880;2023-01-26T03:39:14;101421.95;;;3.00;100.00
24336;BME280;33098;52.400;16.880;2023-01-26T03:42:00;101424.34;;;2.91;100.00
24336;BME280;33098;52.400;16.880;2023-01-26T03:44:46;101420.20;;;2.83;100.00
24336;BME280;33098;52.400;16.880;2023-01-26T03:47:32;101413.14;;;2.85;100.00
24336;BME280;33098;52.400;16.880;2023-01-26T03:50:18;101412.05;;;2.86;100.00
24336;BME280;33098;52.400;16.880;2023-01-26T03:53:18;101407.02;;;2.78;100.00
24336;BME280;33098;52.400;16.880;2023-01-26T03:56:08;101404.16;;;2.74;100.00
24336;BME280;33098;52.400;16.880;2023-01-26T04:01:21;101403.25;;;2.75;100.00
24336;BME280;33098;52.400;16.880;2023-01-26T04:03:55;101404.63;;;2.82;100.00
24336;BME280;33098;52.400;16.880;2023-01-26T04:06:44;101400.81;;;3.08;100.00
24336;BME280;33098;52.400;16.880;2023-01-26T04:09:30;101400.96;;;3.20;100.00
24336;BME280;33098;52.400;16.880;2023-01-26T04:11:57;101401.05;;;3.23;100.00
24336;BME280;33098;52.400;16.880;2023-01-26T04:14:24;101397.40;;;3.17;100.00
24336;BME280;33098;52.400;16.880;2023-01-26T04:17:10;101391.59;;;3.12;100.00
24336;BME280;33098;52.400;16.880;2023-01-26T04:19:56;101390.59;;;3.00;100.00
24336;BME280;33098;52.400;16.880;2023-01-26T04:22:43;101392.34;;;3.05;100.00
24336;BME280;33098;52.400;16.880;2023-01-26T04:25:17;101390.72;;;3.12;100.00
24336;BME280;33098;52.400;16.880;2023-01-26T04:27:45;101394.51;;;3.19;100.00
24336;BME280;33098;52.400;16.880;2023-01-26T04:30:13;101394.84;;;3.15;100.00
24336;BME280;33098;52.400;16.880;2023-01-26T04:32:41;101386.90;;;3.05;100.00
24336;BME280;33098;52.400;16.880;2023-01-26T04:35:08;101378.54;;;3.03;100.00
24336;BME280;33098;52.400;16.880;2023-01-26T04:37:37;101372.83;;;3.01;100.00
24336;BME280;33098;52.400;16.880;2023-01-26T04:40:05;101370.62;;;2.93;100.00
24336;BME280;33098;52.400;16.880;2023-01-26T04:42:33;101364.94;;;2.90;100.00
24336;BME280;33098;52.400;16.880;2023-01-26T04:45:01;101361.38;;;2.86;100.00
24336;BME280;33098;52.400;16.880;2023-01-26T04:47:29;101361.17;;;2.87;100.00
24336;BME280;33098;52.400;16.880;2023-01-26T04:49:55;101359.86;;;3.00;100.00
24336;BME280;33098;52.400;16.880;2023-01-26T04:52:23;101358.62;;;3.12;100.00
24336;BME280;33098;52.400;16.880;2023-01-26T04:54:50;101365.24;;;3.07;100.00
24336;BME280;33098;52.400;16.880;2023-01-26T04:57:17;101356.84;;;3.07;100.00
24336;BME280;33098;52.400;16.880;2023-01-26T04:59:50;101354.13;;;3.04;100.00
24336;BME280;33098;52.400;16.880;2023-01-26T05:02:18;101357.80;;;2.99;100.00
24336;BME280;33098;52.400;16.880;2023-01-26T05:04:45;101361.19;;;2.98;100.00
24336;BME280;33098;52.400;16.880;2023-01-26T05:07:12;101363.48;;;3.07;100.00
24336;BME280;33098;52.400;16.880;2023-01-26T05:09:39;101361.17;;;3.14;100.00
24336;BME280;33098;52.400;16.880;2023-01-26T05:12:23;101362.33;;;3.17;100.00
24336;BME280;33098;52.400;16.880;2023-01-26T05:15:38;101363.91;;;3.16;100.00
24336;BME280;33098;52.400;16.880;2023-01-26T05:18:11;101367.48;;;3.20;100.00
24336;BME280;33098;52.400;16.880;2023-01-26T05:20:53;101363.90;;;3.17;100.00
24336;BME280;33098;52.400;16.880;2023-01-26T05:23:27;101363.49;;;3.13;100.00
24336;BME280;33098;52.400;16.880;2023-01-26T05:26:32;101355.89;;;3.09;100.00
24336;BME280;33098;52.400;16.880;2023-01-26T05:29:03;101348.39;;;3.03;100.00
24336;BME280;33098;52.400;16.880;2023-01-26T05:31:29;101349.35;;;3.00;100.00
24336;BME280;33098;52.400;16.880;2023-01-26T05:33:56;101352.92;;;2.92;100.00
24336;BME280;33098;52.400;16.880;2023-01-26T05:36:23;101354.90;;;2.91;100.00
24336;BME280;33098;52.400;16.880;2023-01-26T05:38:50;101359.83;;;2.90;100.00
24336;BME280;33098;52.400;16.880;2023-01-26T05:41:20;101358.40;;;2.97;100.00
24336;BME280;33098;52.400;16.880;2023-01-26T05:44:20;101358.42;;;2.97;100.00
24336;BME280;33098;52.400;16.880;2023-01-26T05:46:54;101352.35;;;2.94;100.00
24336;BME280;33098;52.400;16.880;2023-01-26T05:49:21;101351.52;;;2.93;100.00
24336;BME280;33098;52.400;16.880;2023-01-26T05:51:50;101351.61;;;2.90;100.00
24336;BME280;33098;52.400;16.880;2023-01-26T05:54:16;101347.74;;;2.90;100.00
24336;BME280;33098;52.400;16.880;2023-01-26T05:56:43;101346.57;;;2.83;100.00
24336;BME280;33098;52.400;16.880;2023-01-26T05:59:10;101346.05;;;2.83;100.00
24336;BME280;33098;52.400;16.880;2023-01-26T06:01:37;101344.78;;;2.89;100.00
24336;BME280;33098;52.400;16.880;2023-01-26T06:04:05;101348.41;;;2.91;100.00
24336;BME280;33098;52.400;16.880;2023-01-26T06:06:47;101348.70;;;2.93;100.00
24336;BME280;33098;52.400;16.880;2023-01-26T06:09:26;101349.92;;;2.83;100.00
24336;BME280;33098;52.400;16.880;2023-01-26T06:12:16;101346.77;;;2.76;100.00
24336;BME280;33098;52.400;16.880;2023-01-26T06:14:56;101347.53;;;2.80;100.00
24336;BME280;33098;52.400;16.880;2023-01-26T06:17:28;101346.39;;;2.94;100.00
24336;BME280;33098;52.400;16.880;2023-01-26T06:19:59;101344.55;;;3.02;100.00
24336;BME280;33098;52.400;16.880;2023-01-26T06:22:26;101346.10;;;2.98;100.00
24336;BME280;33098;52.400;16.880;2023-01-26T06:24:52;101345.09;;;2.96;100.00
24336;BME280;33098;52.400;16.880;2023-01-26T06:27:21;101344.63;;;3.00;100.00
24336;BME280;33098;52.400;16.880;2023-01-26T06:29:49;101349.77;;;2.98;100.00
24336;BME280;33098;52.400;16.880;2023-01-26T06:32:16;101348.25;;;3.07;100.00
24336;BME280;33098;52.400;16.880;2023-01-26T06:34:44;101346.20;;;3.05;100.00
24336;BME280;33098;52.400;16.880;2023-01-26T06:37:11;101345.48;;;2.95;100.00
24336;BME280;33098;52.400;16.880;2023-01-26T06:39:39;101341.85;;;2.83;100.00
24336;BME280;33098;52.400;16.880;2023-01-26T06:42:07;101340.63;;;2.88;100.00
24336;BME280;33098;52.400;16.880;2023-01-26T06:44:34;101341.64;;;2.95;100.00
24336;BME280;33098;52.400;16.880;2023-01-26T06:47:01;101349.95;;;2.98;100.00
24336;BME280;33098;52.400;16.880;2023-01-26T06:49:28;101340.49;;;2.98;100.00
24336;BME280;33098;52.400;16.880;2023-01-26T06:52:03;101336.27;;;2.92;100.00
24336;BME280;33098;52.400;16.880;2023-01-26T06:54:48;101338.93;;;2.86;100.00
24336;BME280;33098;52.400;16.880;2023-01-26T06:57:42;101341.52;;;2.93;100.00
24336;BME280;33098;52.400;16.880;2023-01-26T07:00:31;101345.30;;;3.06;100.00
24336;BME280;33098;52.400;16.880;2023-01-26T07:03:13;101345.02;;;3.09;100.00
24336;BME280;33098;52.400;16.880;2023-01-26T07:05:39;101348.25;;;3.13;100.00
24336;BME280;33098;52.400;16.880;2023-01-26T07:08:06;101345.34;;;3.21;100.00
24336;BME280;33098;52.400;16.880;2023-01-26T07:10:37;101351.76;;;3.28;100.00
24336;BME280;33098;52.400;16.880;2023-01-26T07:13:05;101351.04;;;3.29;100.00
24336;BME280;33098;52.400;16.880;2023-01-26T07:15:32;101347.86;;;3.30;100.00
24336;BME280;33098;52.400;16.880;2023-01-26T07:17:59;101349.23;;;3.30;100.00
24336;BME280;33098;52.400;16.880;2023-01-26T07:20:26;101345.41;;;3.29;100.00
24336;BME280;33098;52.400;16.880;2023-01-26T07:22:52;101353.58;;;3.21;100.00
24336;BME280;33098;52.400;16.880;2023-01-26T07:25:19;101350.27;;;3.16;100.00
24336;BME280;33098;52.400;16.880;2023-01-26T07:27:45;101350.05;;;3.11;100.00
24336;BME280;33098;52.400;16.880;2023-01-26T07:30:13;101351.84;;;3.04;100.00
24336;BME280;33098;52.400;16.880;2023-01-26T07:32:40;101353.88;;;3.01;100.00
24336;BME280;33098;52.400;16.880;2023-01-26T07:35:07;101344.27;;;3.05;100.00
24336;BME280;33098;52.400;16.880;2023-01-26T07:37:34;101339.33;;;3.11;100.00
24336;BME280;33098;52.400;16.880;2023-01-26T07:40:04;101344.02;;;3.23;100.00
24336;BME280;33098;52.400;16.880;2023-01-26T07:42:31;101345.02;;;3.30;100.00
24336;BME280;33098;52.400;16.880;2023-01-26T07:45:05;101347.02;;;3.39;100.00
24336;BME280;33098;52.400;16.880;2023-01-26T07:47:31;101350.39;;;3.37;100.00
24336;BME280;33098;52.400;16.880;2023-01-26T07:49:58;101351.70;;;3.25;100.00
24336;BME280;33098;52.400;16.880;2023-01-26T07:52:24;101347.48;;;3.25;100.00
24336;BME280;33098;52.400;16.880;2023-01-26T07:54:52;101352.04;;;3.26;100.00
24336;BME280;33098;52.400;16.880;2023-01-26T07:57:18;101354.13;;;3.31;100.00
24336;BME280;33098;52.400;16.880;2023-01-26T07:59:45;101357.55;;;3.39;100.00
24336;BME280;33098;52.400;16.880;2023-01-26T08:02:11;101358.93;;;3.50;100.00
24336;BME280;33098;52.400;16.880;2023-01-26T08:04:38;101356.72;;;3.37;99.96
24336;BME280;33098;52.400;16.880;2023-01-26T08:07:05;101353.98;;;3.30;99.91
24336;BME280;33098;52.400;16.880;2023-01-26T08:09:31;101349.54;;;3.21;99.89
24336;BME280;33098;52.400;16.880;2023-01-26T08:11:58;101346.23;;;3.21;99.90
24336;BME280;33098;52.400;16.880;2023-01-26T08:14:24;101352.39;;;3.25;99.98
24336;BME280;33098;52.400;16.880;2023-01-26T08:16:51;101352.71;;;3.37;100.00
24336;BME280;33098;52.400;16.880;2023-01-26T08:19:18;101348.27;;;3.43;100.00
24336;BME280;33098;52.400;16.880;2023-01-26T08:21:44;101344.29;;;3.52;100.00
24336;BME280;33098;52.400;16.880;2023-01-26T08:24:11;101335.52;;;3.52;100.00
24336;BME280;33098;52.400;16.880;2023-01-26T08:26:38;101336.25;;;3.56;100.00
24336;BME280;33098;52.400;16.880;2023-01-26T08:29:04;101333.42;;;3.51;99.82
24336;BME280;33098;52.400;16.880;2023-01-26T08:31:31;101335.91;;;3.35;98.95
24336;BME280;33098;52.400;16.880;2023-01-26T08:33:58;101337.01;;;3.19;98.45
24336;BME280;33098;52.400;16.880;2023-01-26T08:36:25;101334.48;;;3.15;98.79
24336;BME280;33098;52.400;16.880;2023-01-26T08:38:52;101334.05;;;3.18;98.98
24336;BME280;33098;52.400;16.880;2023-01-26T08:41:19;101333.33;;;3.23;99.08
24336;BME280;33098;52.400;16.880;2023-01-26T08:43:46;101333.89;;;3.27;99.28
24336;BME280;33098;52.400;16.880;2023-01-26T08:46:12;101336.95;;;3.41;99.86
24336;BME280;33098;52.400;16.880;2023-01-26T08:48:39;101332.98;;;3.54;99.88
24336;BME280;33098;52.400;16.880;2023-01-26T08:51:07;101335.73;;;3.56;99.88
24336;BME280;33098;52.400;16.880;2023-01-26T08:53:36;101342.91;;;3.51;99.65
24336;BME280;33098;52.400;16.880;2023-01-26T08:56:05;101347.02;;;3.44;99.18
24336;BME280;33098;52.400;16.880;2023-01-26T08:58:33;101345.73;;;3.46;99.31
24336;BME280;33098;52.400;16.880;2023-01-26T09:01:09;101347.29;;;3.56;99.65
24336;BME280;33098;52.400;16.880;2023-01-26T09:03:37;101345.16;;;3.72;99.99
24336;BME280;33098;52.400;16.880;2023-01-26T09:06:08;101347.10;;;3.82;99.94
24336;BME280;33098;52.400;16.880;2023-01-26T09:08:35;101344.86;;;3.86;99.66
24336;BME280;33098;52.400;16.880;2023-01-26T09:11:04;101349.06;;;3.86;99.54
24336;BME280;33098;52.400;16.880;2023-01-26T09:13:31;101350.65;;;3.90;99.50
24336;BME280;33098;52.400;16.880;2023-01-26T09:15:58;101348.47;;;3.97;99.33
24336;BME280;33098;52.400;16.880;2023-01-26T09:18:24;101353.48;;;4.04;99.30
24336;BME280;33098;52.400;16.880;2023-01-26T09:20:53;101349.91;;;4.06;99.21
24336;BME280;33098;52.400;16.880;2023-01-26T09:23:21;101347.16;;;4.09;99.16
24336;BME280;33098;52.400;16.880;2023-01-26T09:25:52;101346.42;;;4.15;99.03
24336;BME280;33098;52.400;16.880;2023-01-26T09:28:19;101346.70;;;4.21;98.91
24336;BME280;33098;52.400;16.880;2023-01-26T09:30:45;101345.73;;;4.24;98.70
24336;BME280;33098;52.400;16.880;2023-01-26T09:33:12;101343.62;;;4.29;98.46
24336;BME280;33098;52.400;16.880;2023-01-26T09:35:38;101347.49;;;4.38;98.47
24336;BME280;33098;52.400;16.880;2023-01-26T09:38:05;101346.95;;;4.43;98.25
24336;BME280;33098;52.400;16.880;2023-01-26T09:40:56;101349.20;;;4.35;97.65
24336;BME280;33098;52.400;16.880;2023-01-26T09:49:12;101347.80;;;4.39;97.23
24336;BME280;33098;52.400;16.880;2023-01-26T09:51:45;101343.79;;;4.48;97.40
24336;BME280;33098;52.400;16.880;2023-01-26T09:54:30;101345.06;;;4.51;96.99
24336;BME280;33098;52.400;16.880;2023-01-26T09:57:09;101346.38;;;4.40;95.99
24336;BME280;33098;52.400;16.880;2023-01-26T09:59:47;101344.27;;;4.16;95.30
24336;BME280;33098;52.400;16.880;2023-01-26T10:02:40;101346.25;;;4.20;95.61
24336;BME280;33098;52.400;16.880;2023-01-26T10:05:17;101342.95;;;4.23;95.72
24336;BME280;33098;52.400;16.880;2023-01-26T10:07:46;101340.94;;;4.26;95.77
24336;BME280;33098;52.400;16.880;2023-01-26T10:10:22;101336.61;;;4.28;95.63
24336;BME280;33098;52.400;16.880;2023-01-26T10:12:52;101338.08;;;4.26;95.63
24336;BME280;33098;52.400;16.880;2023-01-26T10:17:46;101338.14;;;4.34;95.73
24336;BME280;33098;52.400;16.880;2023-01-26T10:23:01;101336.02;;;4.39;95.78
24336;BME280;33098;52.400;16.880;2023-01-26T10:25:35;101327.79;;;4.43;95.33
24336;BME280;33098;52.400;16.880;2023-01-26T10:28:29;101326.55;;;4.20;93.86
24336;BME280;33098;52.400;16.880;2023-01-26T10:30:56;101322.84;;;4.02;93.59
24336;BME280;33098;52.400;16.880;2023-01-26T10:36:02;101323.33;;;3.98;93.98
24336;BME280;33098;52.400;16.880;2023-01-26T10:41:23;101317.86;;;4.04;94.53
24336;BME280;33098;52.400;16.880;2023-01-26T10:43:54;101311.81;;;4.05;94.46
24336;BME280;33098;52.400;16.880;2023-01-26T10:46:29;101311.11;;;3.96;93.91
24336;BME280;33098;52.400;16.880;2023-01-26T10:51:37;101301.86;;;3.61;92.85
24336;BME280;33098;52.400;16.880;2023-01-26T10:54:24;101298.06;;;3.49;92.60
24336;BME280;33098;52.400;16.880;2023-01-26T11:02:24;101292.77;;;3.55;93.85
24336;BME280;33098;52.400;16.880;2023-01-26T11:07:36;101291.41;;;3.58;94.15
24336;BME280;33098;52.400;16.880;2023-01-26T11:10:24;101286.04;;;3.56;94.38
24336;BME280;33098;52.400;16.880;2023-01-26T11:13:05;101279.34;;;3.52;94.32
24336;BME280;33098;52.400;16.880;2023-01-26T11:15:36;101277.38;;;3.53;94.27
24336;BME280;33098;52.400;16.880;2023-01-26T11:18:15;101272.58;;;3.40;94.06
24336;BME280;33098;52.400;16.880;2023-01-26T11:23:41;101272.13;;;3.33;94.45
24336;BME280;33098;52.400;16.880;2023-01-26T11:35:31;101260.26;;;3.05;94.48
24336;BME280;33098;52.400;16.880;2023-01-26T11:41:05;101259.08;;;3.30;95.96
24336;BME280;33098;52.400;16.880;2023-01-26T11:46:44;101248.02;;;3.59;96.57
24336;BME280;33098;52.400;16.880;2023-01-26T11:49:37;101247.63;;;3.50;95.44
24336;BME280;33098;52.400;16.880;2023-01-26T11:57:40;101228.73;;;3.35;95.34
24336;BME280;33098;52.400;16.880;2023-01-26T12:02:58;101224.80;;;3.37;95.47
24336;BME280;33098;52.400;16.880;2023-01-26T12:05:43;101225.52;;;3.40;95.68
24336;BME280;33098;52.400;16.880;2023-01-26T12:14:17;101216.22;;;3.51;95.73
24336;BME280;33098;52.400;16.880;2023-01-26T12:16:56;101210.79;;;3.64;96.17
24336;BME280;33098;52.400;16.880;2023-01-26T12:22:36;101199.90;;;3.55;95.38
24336;BME280;33098;52.400;16.880;2023-01-26T12:27:52;101201.83;;;3.65;95.41
24336;BME280;33098;52.400;16.880;2023-01-26T12:33:22;101202.98;;;3.42;94.84
24336;BME280;33098;52.400;16.880;2023-01-26T12:46:55;101208.06;;;3.24;94.99
24336;BME280;33098;52.400;16.880;2023-01-26T12:49:34;101207.48;;;3.21;94.77
24336;BME280;33098;52.400;16.880;2023-01-26T12:52:09;101204.64;;;3.01;94.53
24336;BME280;33098;52.400;16.880;2023-01-26T12:54:55;101203.42;;;2.86;94.44
24336;BME280;33098;52.400;16.880;2023-01-26T12:57:37;101199.20;;;2.76;94.73
24336;BME280;33098;52.400;16.880;2023-01-26T13:00:36;101201.58;;;2.73;95.08
24336;BME280;33098;52.400;16.880;2023-01-26T13:03:15;101199.37;;;2.76;95.61
24336;BME280;33098;52.400;16.880;2023-01-26T13:09:19;101201.55;;;2.99;96.07
24336;BME280;33098;52.400;16.880;2023-01-26T13:11:57;101192.17;;;3.07;96.47
24336;BME280;33098;52.400;16.880;2023-01-26T13:14:26;101189.73;;;3.11;96.65
24336;BME280;33098;52.400;16.880;2023-01-26T13:16:53;101193.11;;;3.20;96.61
24336;BME280;33098;52.400;16.880;2023-01-26T13:24:55;101191.52;;;3.25;96.38
24336;BME280;33098;52.400;16.880;2023-01-26T13:27:42;101194.14;;;3.35;96.49
24336;BME280;33098;52.400;16.880;2023-01-26T13:32:50;101198.33;;;3.36;96.42
24336;BME280;33098;52.400;16.880;2023-01-26T13:35:20;101200.24;;;3.46;96.62
24336;BME280;33098;52.400;16.880;2023-01-26T13:40:44;101199.27;;;3.67;96.67
24336;BME280;33098;52.400;16.880;2023-01-26T13:43:14;101201.12;;;3.69;96.60
24336;BME280;33098;52.400;16.880;2023-01-26T13:48:42;101196.09;;;3.68;95.97
24336;BME280;33098;52.400;16.880;2023-01-26T13:51:14;101197.01;;;3.76;96.23
24336;BME280;33098;52.400;16.880;2023-01-26T13:54:02;101200.77;;;3.74;95.66
24336;BME280;33098;52.400;16.880;2023-01-26T13:56:35;101200.96;;;3.64;95.34
24336;BME280;33098;52.400;16.880;2023-01-26T14:01:30;101196.68;;;3.57;95.05
24336;BME280;33098;52.400;16.880;2023-01-26T14:04:05;101196.65;;;3.58;94.99
24336;BME280;33098;52.400;16.880;2023-01-26T14:06:34;101199.70;;;3.60;95.22
24336;BME280;33098;52.400;16.880;2023-01-26T14:09:03;101196.50;;;3.61;95.13
24336;BME280;33098;52.400;16.880;2023-01-26T14:11:32;101195.95;;;3.67;95.30
24336;BME280;33098;52.400;16.880;2023-01-26T14:14:00;101190.27;;;3.69;95.33
24336;BME280;33098;52.400;16.880;2023-01-26T14:16:32;101189.49;;;3.75;95.38
24336;BME280;33098;52.400;16.880;2023-01-26T14:19:20;101194.91;;;3.85;95.56
24336;BME280;33098;52.400;16.880;2023-01-26T14:24:33;101197.01;;;3.86;95.32
24336;BME280;33098;52.400;16.880;2023-01-26T14:29:50;101197.06;;;3.88;95.08
24336;BME280;33098;52.400;16.880;2023-01-26T14:32:16;101197.53;;;3.90;94.92
24336;BME280;33098;52.400;16.880;2023-01-26T14:35:01;101200.54;;;3.94;95.00
24336;BME280;33098;52.400;16.880;2023-01-26T14:37:28;101196.23;;;3.92;94.70
24336;BME280;33098;52.400;16.880;2023-01-26T14:40:20;101199.17;;;3.84;94.28
24336;BME280;33098;52.400;16.880;2023-01-26T14:42:52;101201.90;;;3.91;94.63
24336;BME280;33098;52.400;16.880;2023-01-26T14:45:39;101209.92;;;3.97;94.52
24336;BME280;33098;52.400;16.880;2023-01-26T14:48:12;101214.23;;;3.99;94.57
24336;BME280;33098;52.400;16.880;2023-01-26T14:50:40;101207.52;;;3.95;94.10
24336;BME280;33098;52.400;16.880;2023-01-26T14:53:20;101206.59;;;3.87;93.77
24336;BME280;33098;52.400;16.880;2023-01-26T14:55:49;101201.67;;;3.69;93.15
24336;BME280;33098;52.400;16.880;2023-01-26T14:58:24;101204.64;;;3.64;93.47
24336;BME280;33098;52.400;16.880;2023-01-26T15:00:57;101205.15;;;3.69;93.73
24336;BME280;33098;52.400;16.880;2023-01-26T15:03:42;101203.52;;;3.81;94.17